createdAt,value
2018-03-25T09:51:01.061Z,2.90
2018-03-25T17:23:32.422Z,2.90
2018-03-25T17:26:25.615Z,2.70
2018-03-25T17:35:51.800Z,2.70
2018-03-25T17:38:20.477Z,2.70
2018-03-25T17:40:49.168Z,2.80
2018-03-25T17:43:17.923Z,2.80
2018-03-25T17:45:47.793Z,2.80
2018-03-25T17:48:16.723Z,2.80
2018-03-25T17:50:45.381Z,2.80
2018-03-25T17:53:14.066Z,2.70
2018-03-25T17:55:42.769Z,2.70
2018-03-25T17:58:13.135Z,2.60
2018-03-25T18:00:43.034Z,2.60
2018-03-25T18:03:11.790Z,2.60
2018-03-25T18:05:40.634Z,2.60
2018-03-25T18:08:09.525Z,2.70
2018-03-25T18:10:38.289Z,2.60
2018-03-25T18:13:07.232Z,2.50
2018-03-25T18:15:35.966Z,2.50
2018-03-25T18:18:04.345Z,2.40
2018-03-25T18:20:33.305Z,2.50
2018-03-25T18:23:01.837Z,2.50
2018-03-25T18:25:31.325Z,2.40
2018-03-25T18:28:00.095Z,2.40
2018-03-25T18:30:28.897Z,2.40
2018-03-25T18:32:57.742Z,2.50
2018-03-25T19:58:37.978Z,2.00
2018-03-25T20:01:07.829Z,2.00
2018-03-25T20:03:36.682Z,2.00
2018-03-25T20:06:06.189Z,2.00
2018-03-25T20:08:36.022Z,2.00
2018-03-25T20:11:04.837Z,2.00
2018-03-25T20:13:33.841Z,2.00
2018-03-25T20:16:02.700Z,2.00
2018-03-25T20:18:31.405Z,1.90
2018-03-25T20:21:00.070Z,1.90
2018-03-25T20:23:29.026Z,1.90
2018-03-25T20:25:57.592Z,1.90
2018-03-25T20:28:26.298Z,1.90
2018-03-25T20:30:55.480Z,1.90
2018-03-25T20:33:24.479Z,1.90
2018-03-25T20:35:53.936Z,1.90
2018-03-25T20:38:22.608Z,1.90
2018-03-25T20:40:52.081Z,1.90
2018-03-25T20:43:20.768Z,1.90
2018-03-25T20:45:49.505Z,1.90
2018-03-25T20:48:18.241Z,1.90
2018-03-25T20:50:47.275Z,1.90
2018-03-25T20:53:17.584Z,1.80
2018-03-25T20:55:46.738Z,1.80
2018-03-25T20:58:15.518Z,1.80
2018-03-25T21:00:44.375Z,1.80
2018-03-25T21:03:13.959Z,1.80
2018-03-25T21:05:42.966Z,1.80
2018-03-25T21:08:11.729Z,1.80
2018-03-25T21:10:42.009Z,1.70
2018-03-25T21:13:10.680Z,1.80
2018-03-25T21:15:40.136Z,1.80
2018-03-25T21:18:08.841Z,1.80
2018-03-25T21:20:37.545Z,1.80
2018-03-25T21:23:06.194Z,1.80
2018-03-25T21:25:34.908Z,1.80
2018-03-25T21:28:03.602Z,1.80
2018-03-25T21:30:32.276Z,1.70
2018-03-25T21:33:00.960Z,1.70
2018-03-25T21:35:29.656Z,1.70
2018-03-25T21:37:58.329Z,1.70
2018-03-25T21:40:27.041Z,1.70
2018-03-25T21:42:56.522Z,1.70
2018-03-25T21:45:25.214Z,1.70
2018-03-25T21:47:53.906Z,1.70
2018-03-25T21:50:22.537Z,1.70
2018-03-25T22:03:07.336Z,1.70
2018-03-25T22:05:37.606Z,1.70
2018-03-25T22:08:08.215Z,1.60
2018-03-25T22:10:37.414Z,1.60
2018-03-25T22:13:09.863Z,1.60
2018-03-25T22:15:39.606Z,1.60
2018-03-25T22:18:08.118Z,1.60
2018-03-25T22:35:56.586Z,1.50
2018-03-25T22:40:58.782Z,1.50
2018-03-25T23:32:17.088Z,1.60
2018-03-25T23:34:45.801Z,1.60
2018-03-25T23:37:16.355Z,1.50
2018-03-25T23:39:46.440Z,1.50
2018-03-25T23:44:49.998Z,1.40
2018-03-25T23:52:27.423Z,1.40
2018-03-25T23:54:57.547Z,1.40
